Time;durP1;ratioP1;P1;durP2;ratioP2;P2;SDS_P1;SDS_P2;PMS_P1;PMS_P2;Temp;Humidity;BMP_temperature;BMP_pressure;BME280_temperature;BME280_humidity;BME280_pressure;Samples;Min_cycle;Max_cycle;Signal;HPM_P1;HPM_P2
2023/01/07 00:02:31;;;;;;;14.30;9.55;;;11.60;90.30;;;;;;9177518;19;20015;-68
2023/01/07 00:05:32;;;;;;;18.48;10.52;;;11.60;90.30;;;;;;9179743;19;20014;-67
2023/01/07 00:08:36;;;;;;;14.38;10.40;;;11.60;90.30;;;;;;9171838;19;20103;-68
2023/01/07 00:11:39;;;;;;;14.45;10.70;;;11.60;90.30;;;;;;9176341;19;20011;-68
2023/01/07 00:14:40;;;;;;;18.73;10.30;;;11.60;90.30;;;;;;9179105;19;20023;-68
2023/01/07 00:17:41;;;;;;;16.13;10.57;;;11.60;90.30;;;;;;9179244;19;20051;-66
2023/01/07 00:20:43;;;;;;;19.65;10.57;;;11.60;90.30;;;;;;9178254;19;20015;-67
2023/01/07 00:23:45;;;;;;;14.38;10.52;;;11.70;90.30;;;;;;9178687;19;20023;-66
2023/01/07 00:26:47;;;;;;;14.45;10.07;;;11.70;90.30;;;;;;9177664;19;20356;-68
2023/01/07 00:29:48;;;;;;;13.40;10.25;;;11.70;90.30;;;;;;9176841;19;20089;-67
2023/01/07 00:33:03;;;;;;;15.20;9.70;;;11.70;90.40;;;;;;9178905;19;20036;-67
2023/01/07 00:36:07;;;;;;;15.10;10.45;;;11.70;90.40;;;;;;9178151;19;20038;-67
2023/01/07 00:39:20;;;;;;;16.10;10.00;;;11.70;90.40;;;;;;9179140;19;20042;-67
2023/01/07 00:45:41;;;;;;;14.93;9.07;;;11.70;90.40;;;;;;9178416;19;20011;-67
2023/01/07 00:48:43;;;;;;;13.10;9.32;;;11.70;90.40;;;;;;9175692;19;20021;-66
2023/01/07 00:51:45;;;;;;;17.08;10.50;;;11.70;90.40;;;;;;9178499;19;20018;-65
2023/01/07 00:54:46;;;;;;;14.93;8.63;;;11.70;90.40;;;;;;9178207;19;20018;-66
2023/01/07 00:57:48;;;;;;;12.35;8.82;;;11.70;90.40;;;;;;9178216;19;20356;-67
2023/01/07 01:00:54;;;;;;;14.38;8.90;;;11.70;90.40;;;;;;9176494;19;20048;-67
2023/01/07 01:03:55;;;;;;;12.70;8.15;;;11.80;90.40;;;;;;9174660;19;20025;-67
2023/01/07 01:06:57;;;;;;;14.77;9.30;;;11.80;90.50;;;;;;9171575;19;20019;-68
2023/01/07 01:09:58;;;;;;;13.50;9.18;;;11.80;90.40;;;;;;9174406;19;20031;-66
2023/01/07 01:13:00;;;;;;;12.18;8.15;;;11.80;90.40;;;;;;9172262;19;20022;-67
2023/01/07 01:16:10;;;;;;;12.40;8.57;;;11.80;90.50;;;;;;9176927;19;20018;-67
2023/01/07 01:19:11;;;;;;;11.80;7.72;;;11.80;90.40;;;;;;9177267;19;20024;-66
2023/01/07 01:22:13;;;;;;;12.77;8.13;;;11.80;90.50;;;;;;9177486;19;20022;-68
2023/01/07 01:25:14;;;;;;;11.63;8.07;;;11.80;90.40;;;;;;9177552;19;20014;-67
2023/01/07 01:28:16;;;;;;;14.07;7.93;;;11.80;90.40;;;;;;9173099;19;20028;-67
2023/01/07 01:31:17;;;;;;;15.45;7.72;;;11.80;90.40;;;;;;9175389;19;20114;-67
2023/01/07 01:34:22;;;;;;;11.98;7.90;;;11.80;90.50;;;;;;9175299;19;20467;-66
2023/01/07 01:37:24;;;;;;;13.90;8.32;;;11.80;90.50;;;;;;9174951;19;20487;-67
2023/01/07 01:40:28;;;;;;;11.27;7.57;;;11.80;90.50;;;;;;9176751;19;20114;-68
2023/01/07 01:43:33;;;;;;;15.40;7.70;;;11.80;90.50;;;;;;9174403;19;20018;-67
2023/01/07 01:46:41;;;;;;;11.40;8.07;;;11.80;90.50;;;;;;9174343;19;20022;-68
2023/01/07 01:49:48;;;;;;;14.27;8.57;;;11.80;90.50;;;;;;9174005;19;20022;-67
2023/01/07 01:53:01;;;;;;;16.90;7.72;;;11.80;90.50;;;;;;9174902;19;20024;-69
2023/01/07 01:56:10;;;;;;;15.17;8.87;;;11.80;90.50;;;;;;9173974;19;20021;-68
2023/01/07 01:59:17;;;;;;;14.00;8.68;;;11.80;90.50;;;;;;9172852;19;20018;-67
2023/01/07 02:02:30;;;;;;;13.63;8.50;;;11.80;90.50;;;;;;9170475;19;20048;-67
2023/01/07 02:05:36;;;;;;;12.45;8.40;;;11.80;90.50;;;;;;9172477;19;20023;-68
2023/01/07 02:08:41;;;;;;;12.77;8.77;;;11.80;90.50;;;;;;9163640;19;20022;-68
2023/01/07 02:11:56;;;;;;;13.73;8.85;;;11.80;90.50;;;;;;9169107;19;20043;-67
2023/01/07 02:15:18;;;;;;;12.63;8.02;;;11.80;90.50;;;;;;9177533;19;20014;-68
2023/01/07 02:18:43;;;;;;;12.85;7.65;;;11.80;90.50;;;;;;9179856;19;20365;-67
2023/01/07 02:22:01;;;;;;;12.05;8.18;;;11.80;90.50;;;;;;9181248;19;20027;-68
2023/01/07 02:25:24;;;;;;;13.75;7.43;;;11.70;90.50;;;;;;9179725;19;20512;-68
2023/01/07 02:28:52;;;;;;;10.25;7.75;;;11.70;90.50;;;;;;9178886;19;20015;-68
2023/01/07 02:32:31;;;;;;;13.55;7.18;;;11.70;90.50;;;;;;9175355;19;20025;-68
2023/01/07 02:36:02;;;;;;;15.45;7.05;;;11.70;90.50;;;;;;9181506;19;20018;-68
2023/01/07 02:39:38;;;;;;;12.32;7.15;;;11.70;90.50;;;;;;9181578;19;20043;-68
2023/01/07 02:42:52;;;;;;;9.63;6.65;;;11.70;90.50;;;;;;9183444;19;20369;-67
2023/01/07 02:46:18;;;;;;;9.07;6.18;;;11.70;90.50;;;;;;9180497;19;20048;-68
2023/01/07 02:49:19;;;;;;;11.70;6.72;;;11.70;90.50;;;;;;9177633;19;20086;-68
2023/01/07 02:52:24;;;;;;;7.55;5.28;;;11.60;90.50;;;;;;9180212;19;20022;-69
2023/01/07 02:55:53;;;;;;;16.33;7.88;;;11.70;90.50;;;;;;9181772;19;20418;-68
2023/01/07 02:59:10;;;;;;;8.35;5.72;;;11.70;90.50;;;;;;9180213;19;20376;-67
2023/01/07 03:02:25;;;;;;;10.40;6.07;;;11.70;90.50;;;;;;9180599;19;20010;-66
2023/01/07 03:06:00;;;;;;;11.13;5.85;;;11.60;90.50;;;;;;9178877;19;20022;-66
2023/01/07 03:09:16;;;;;;;8.95;5.93;;;11.70;90.50;;;;;;9174442;19;20022;-68
2023/01/07 03:12:44;;;;;;;9.30;5.78;;;11.60;90.40;;;;;;9180546;19;20019;-68
2023/01/07 03:16:01;;;;;;;8.45;5.10;;;11.60;90.50;;;;;;9179215;19;20042;-68
2023/01/07 03:19:31;;;;;;;10.57;5.32;;;11.60;90.50;;;;;;9180095;19;20482;-68
2023/01/07 03:22:35;;;;;;;7.50;5.03;;;11.60;90.50;;;;;;9180515;19;20034;-67
2023/01/07 03:25:44;;;;;;;9.80;4.47;;;11.60;90.50;;;;;;9176886;19;20015;-69
2023/01/07 03:28:48;;;;;;;9.05;4.90;;;11.60;90.50;;;;;;9179141;19;20030;-68
2023/01/07 03:31:56;;;;;;;10.73;4.82;;;11.60;90.40;;;;;;9179777;19;20018;-69
2023/01/07 03:34:58;;;;;;;8.20;4.68;;;11.50;90.40;;;;;;9180648;19;20066;-68
2023/01/07 03:38:03;;;;;;;8.03;5.23;;;11.50;90.40;;;;;;9179592;19;20029;-68
2023/01/07 03:41:05;;;;;;;6.40;4.47;;;11.50;90.40;;;;;;9178512;19;20465;-68
2023/01/07 03:44:06;;;;;;;8.32;4.45;;;11.50;90.40;;;;;;9180940;19;20018;-68
2023/01/07 03:47:09;;;;;;;6.65;4.63;;;11.50;90.40;;;;;;9180143;19;20093;-68
2023/01/07 03:50:10;;;;;;;10.75;4.80;;;11.50;90.40;;;;;;9180593;19;20467;-68
2023/01/07 03:53:15;;;;;;;10.50;4.88;;;11.40;90.40;;;;;;9179000;19;20038;-68
2023/01/07 03:56:20;;;;;;;8.77;4.43;;;11.40;90.40;;;;;;9180131;19;20011;-68
2023/01/07 03:59:21;;;;;;;7.18;4.85;;;11.40;90.40;;;;;;9177347;19;20463;-68
2023/01/07 04:02:23;;;;;;;9.77;5.15;;;11.40;90.40;;;;;;9178213;19;20014;-68
2023/01/07 04:05:24;;;;;;;6.03;3.83;;;11.30;90.40;;;;;;9179554;19;20044;-68
2023/01/07 04:08:26;;;;;;;7.75;4.10;;;11.30;90.40;;;;;;9171774;19;20014;-68
2023/01/07 04:11:27;;;;;;;7.40;4.45;;;11.30;90.40;;;;;;9177231;19;20404;-68
2023/01/07 04:14:29;;;;;;;10.27;4.38;;;11.30;90.40;;;;;;9178653;19;20015;-68
2023/01/07 04:17:30;;;;;;;8.38;4.45;;;11.30;90.40;;;;;;9179420;19;20090;-68
2023/01/07 04:20:32;;;;;;;7.60;4.05;;;11.20;90.30;;;;;;9178252;19;20014;-68
2023/01/07 04:23:34;;;;;;;6.40;3.83;;;11.20;90.40;;;;;;9179125;19;20021;-68
2023/01/07 04:26:35;;;;;;;8.15;3.97;;;11.20;90.30;;;;;;9177751;19;20014;-68
2023/01/07 04:29:37;;;;;;;5.50;4.15;;;11.20;90.40;;;;;;9174311;19;20445;-68
2023/01/07 04:32:38;;;;;;;9.73;4.10;;;11.20;90.40;;;;;;9177902;19;20491;-69
2023/01/07 04:35:40;;;;;;;11.63;4.40;;;11.10;90.30;;;;;;9177486;19;20014;-68
2023/01/07 04:38:41;;;;;;;6.25;4.45;;;11.10;90.30;;;;;;9178790;19;20004;-68
2023/01/07 04:41:43;;;;;;;9.90;4.07;;;11.10;90.40;;;;;;9176445;19;20042;-69
2023/01/07 04:44:45;;;;;;;9.13;4.03;;;11.00;90.30;;;;;;9177216;19;20014;-68
2023/01/07 04:47:47;;;;;;;5.97;4.05;;;11.10;90.40;;;;;;9176998;19;20010;-68
2023/01/07 04:50:48;;;;;;;7.30;4.47;;;11.10;90.40;;;;;;9176187;19;20056;-67
2023/01/07 04:53:51;;;;;;;7.05;4.10;;;11.00;90.40;;;;;;9176777;19;20014;-67
2023/01/07 04:56:52;;;;;;;10.55;4.00;;;11.00;90.40;;;;;;9176198;19;20021;-67
2023/01/07 04:59:54;;;;;;;7.72;3.70;;;11.00;90.40;;;;;;9176753;19;20098;-68
2023/01/07 05:02:55;;;;;;;8.98;4.00;;;11.00;90.40;;;;;;9176457;19;20015;-68
2023/01/07 05:05:57;;;;;;;5.95;4.07;;;10.90;90.40;;;;;;9177678;19;20014;-68
2023/01/07 05:08:58;;;;;;;12.40;4.90;;;10.90;90.40;;;;;;9168785;19;20030;-68
2023/01/07 05:12:00;;;;;;;6.78;4.13;;;11.00;90.40;;;;;;9175583;19;20018;-68
2023/01/07 05:15:04;;;;;;;7.53;4.00;;;10.90;90.40;;;;;;9174982;19;20102;-69
2023/01/07 05:18:07;;;;;;;10.77;4.22;;;11.00;90.50;;;;;;9176121;19;20015;-68
2023/01/07 05:21:09;;;;;;;6.53;3.95;;;10.90;90.40;;;;;;9174003;19;20471;-68
2023/01/07 05:24:12;;;;;;;9.18;3.80;;;10.90;90.50;;;;;;9174871;19;20020;-68
2023/01/07 05:27:14;;;;;;;8.32;3.95;;;11.00;90.50;;;;;;9174730;19;20113;-68
2023/01/07 05:30:15;;;;;;;4.97;3.90;;;10.90;90.40;;;;;;9177591;19;20107;-68
2023/01/07 05:33:18;;;;;;;8.57;3.97;;;11.00;90.50;;;;;;9174747;19;20358;-68
2023/01/07 05:36:19;;;;;;;7.55;3.90;;;10.90;90.40;;;;;;9176995;19;20022;-68
2023/01/07 05:39:21;;;;;;;5.88;3.67;;;10.90;90.50;;;;;;9174760;19;20039;-68
2023/01/07 05:42:22;;;;;;;6.97;3.45;;;10.90;90.40;;;;;;9170429;19;20340;-68
2023/01/07 05:45:24;;;;;;;7.57;3.85;;;10.90;90.40;;;;;;9168710;19;20022;-68
2023/01/07 05:48:26;;;;;;;6.88;3.65;;;10.90;90.50;;;;;;9161921;19;20345;-68
2023/01/07 05:51:27;;;;;;;4.97;3.95;;;10.90;90.40;;;;;;9167743;19;20133;-69
2023/01/07 05:54:28;;;;;;;9.63;3.60;;;10.90;90.40;;;;;;9169213;19;20014;-68
2023/01/07 05:57:30;;;;;;;8.48;3.78;;;10.90;90.50;;;;;;9174358;19;20018;-68
2023/01/07 06:00:32;;;;;;;6.88;3.65;;;10.90;90.40;;;;;;9175940;19;20011;-68
2023/01/07 06:03:34;;;;;;;9.13;3.70;;;10.80;90.40;;;;;;9175856;19;20455;-68
2023/01/07 06:06:35;;;;;;;4.65;3.45;;;10.80;90.40;;;;;;9171568;19;20043;-68
2023/01/07 06:09:37;;;;;;;5.35;3.30;;;10.80;90.40;;;;;;9172560;19;20795;-68
2023/01/07 06:12:38;;;;;;;6.38;3.83;;;10.80;90.40;;;;;;9175586;19;20011;-68
2023/01/07 06:15:39;;;;;;;4.50;2.95;;;10.80;90.40;;;;;;9175557;19;20013;-68
2023/01/07 06:18:41;;;;;;;5.88;3.70;;;10.80;90.40;;;;;;9174985;19;20018;-68
2023/01/07 06:21:42;;;;;;;4.50;3.10;;;10.80;90.40;;;;;;9174750;19;20022;-68
2023/01/07 06:24:44;;;;;;;10.15;3.45;;;10.80;90.50;;;;;;9173349;19;20110;-67
2023/01/07 06:27:45;;;;;;;6.60;3.25;;;10.80;90.40;;;;;;9173357;19;20019;-68
2023/01/07 06:30:47;;;;;;;4.93;3.00;;;10.80;90.50;;;;;;9174661;19;20012;-68
2023/01/07 06:33:48;;;;;;;7.50;2.90;;;10.70;90.40;;;;;;9173042;19;20029;-68
2023/01/07 06:36:50;;;;;;;6.80;2.97;;;10.70;90.40;;;;;;9173892;19;20014;-68
2023/01/07 06:39:51;;;;;;;6.18;3.22;;;10.70;90.40;;;;;;9173345;19;20381;-68
2023/01/07 06:42:53;;;;;;;4.97;2.72;;;10.70;90.40;;;;;;9173808;19;20376;-68
2023/01/07 06:45:55;;;;;;;4.72;3.15;;;10.70;90.40;;;;;;9172587;19;20345;-68
2023/01/07 06:48:56;;;;;;;5.18;3.13;;;10.70;90.40;;;;;;9170836;19;20019;-68
2023/01/07 06:51:57;;;;;;;3.33;2.45;;;10.60;90.40;;;;;;9173350;19;20015;-68
2023/01/07 06:54:59;;;;;;;4.78;2.92;;;10.60;90.40;;;;;;9173562;19;20023;-68
2023/01/07 06:58:00;;;;;;;3.78;2.40;;;10.60;90.40;;;;;;9174101;19;20022;-69
2023/01/07 07:01:04;;;;;;;5.10;2.47;;;10.60;90.40;;;;;;9174259;19;20025;-69
2023/01/07 07:04:05;;;;;;;10.68;2.60;;;10.60;90.40;;;;;;9182679;19;20015;-68
2023/01/07 07:07:07;;;;;;;4.65;2.80;;;10.60;90.40;;;;;;9176752;19;20022;-68
2023/01/07 07:10:08;;;;;;;4.82;2.92;;;10.60;90.40;;;;;;9179733;19;20027;-68
2023/01/07 07:13:10;;;;;;;7.65;3.20;;;10.60;90.40;;;;;;9181853;19;20015;-68
2023/01/07 07:16:12;;;;;;;5.70;2.72;;;10.60;90.40;;;;;;9180364;19;20023;-68
2023/01/07 07:19:13;;;;;;;6.65;3.15;;;10.60;90.40;;;;;;9181132;19;20054;-68
2023/01/07 07:22:16;;;;;;;6.55;3.72;;;10.50;90.40;;;;;;9181322;19;20018;-68
2023/01/07 07:25:18;;;;;;;4.45;2.85;;;10.60;90.50;;;;;;9181329;19;20051;-69
2023/01/07 07:28:19;;;;;;;5.05;2.92;;;10.50;90.40;;;;;;9179672;19;20032;-69
2023/01/07 07:31:20;;;;;;;4.05;2.78;;;10.50;90.40;;;;;;9181303;19;20038;-69
2023/01/07 07:34:22;;;;;;;3.33;2.10;;;10.50;90.40;;;;;;9181074;19;20014;-68
2023/01/07 07:37:23;;;;;;;4.13;2.88;;;10.50;90.40;;;;;;9181286;19;20011;-68
2023/01/07 07:40:25;;;;;;;4.47;2.90;;;10.50;90.40;;;;;;9181017;19;20021;-68
2023/01/07 07:43:26;;;;;;;5.80;2.20;;;10.50;90.40;;;;;;9180666;19;20018;-68
2023/01/07 07:46:28;;;;;;;3.70;2.22;;;10.50;90.40;;;;;;9178482;19;20062;-68
2023/01/07 07:49:29;;;;;;;3.22;2.33;;;10.40;90.40;;;;;;9178956;19;20018;-68
2023/01/07 07:52:31;;;;;;;2.28;1.75;;;10.40;90.40;;;;;;9181119;19;20033;-68
2023/01/07 07:55:32;;;;;;;4.55;2.50;;;10.40;90.40;;;;;;9181566;19;20043;-68
2023/01/07 07:58:33;;;;;;;5.10;2.22;;;10.40;90.40;;;;;;9179191;19;20018;-68
2023/01/07 08:01:35;;;;;;;4.35;2.17;;;10.40;90.40;;;;;;9180331;19;20046;-68
2023/01/07 08:04:38;;;;;;;4.73;1.93;;;10.40;90.40;;;;;;9180141;19;20030;-68
2023/01/07 08:07:40;;;;;;;7.55;3.10;;;10.40;90.40;;;;;;9175463;19;20022;-69
2023/01/07 08:10:42;;;;;;;3.50;2.25;;;10.40;90.40;;;;;;9178045;19;20014;-68
2023/01/07 08:13:43;;;;;;;2.38;2.17;;;10.40;90.40;;;;;;9176640;19;20014;-68
2023/01/07 08:16:46;;;;;;;3.35;2.22;;;10.40;90.40;;;;;;9179599;19;20018;-68
2023/01/07 08:19:48;;;;;;;3.88;2.28;;;10.40;90.50;;;;;;9178959;19;20014;-69
2023/01/07 08:22:49;;;;;;;12.70;3.40;;;10.50;90.50;;;;;;9179342;19;20015;-69
2023/01/07 08:25:50;;;;;;;4.78;2.35;;;10.40;91.50;;;;;;9179948;19;20053;-68
2023/01/07 08:28:53;;;;;;;4.78;2.03;;;10.50;92.10;;;;;;9177067;19;20014;-68
2023/01/07 08:31:54;;;;;;;4.35;2.10;;;10.40;90.60;;;;;;9178774;19;20026;-69
2023/01/07 08:34:56;;;;;;;3.80;2.03;;;10.40;90.90;;;;;;9179296;19;20034;-68
2023/01/07 08:38:06;;;;;;;3.88;2.20;;;10.50;90.40;;;;;;9178255;19;20025;-68
2023/01/07 08:41:08;;;;;;;5.03;1.67;;;10.50;90.40;;;;;;9171147;19;20029;-68
2023/01/07 08:44:09;;;;;;;3.92;2.15;;;10.50;90.40;;;;;;9175403;19;20018;-68
2023/01/07 08:47:11;;;;;;;2.40;1.80;;;10.50;90.40;;;;;;9176938;19;20014;-68
2023/01/07 08:50:12;;;;;;;4.03;2.13;;;10.50;90.40;;;;;;9178671;19;20038;-68
2023/01/07 08:53:13;;;;;;;9.57;2.20;;;10.50;90.40;;;;;;9179305;19;20045;-68
2023/01/07 08:56:16;;;;;;;6.78;1.92;;;10.50;90.40;;;;;;9178329;19;20017;-68
2023/01/07 08:59:17;;;;;;;2.40;1.77;;;10.60;90.40;;;;;;9175310;19;20022;-68
2023/01/07 09:02:19;;;;;;;6.78;2.22;;;10.60;90.40;;;;;;9175563;19;20490;-69
2023/01/07 09:05:20;;;;;;;8.73;1.95;;;10.60;90.40;;;;;;9175117;19;20486;-69
2023/01/07 09:08:22;;;;;;;4.03;1.58;;;10.60;90.30;;;;;;9170052;19;20018;-68
2023/01/07 09:11:24;;;;;;;4.82;1.90;;;10.60;90.30;;;;;;9174409;19;20007;-68
2023/01/07 09:14:25;;;;;;;4.72;1.63;;;10.60;90.30;;;;;;9176132;19;20039;-68
2023/01/07 09:17:27;;;;;;;2.15;1.60;;;10.70;90.30;;;;;;9170394;19;20006;-68
2023/01/07 09:20:29;;;;;;;2.13;1.60;;;10.70;90.30;;;;;;9167969;19;20029;-68
2023/01/07 09:23:30;;;;;;;4.45;1.83;;;10.70;90.40;;;;;;9171399;19;20015;-69
2023/01/07 09:26:31;;;;;;;5.75;2.00;;;10.70;90.60;;;;;;9173855;19;20479;-68
2023/01/07 09:29:33;;;;;;;3.30;1.40;;;10.70;90.40;;;;;;9174002;19;20085;-68
2023/01/07 09:32:34;;;;;;;2.03;1.60;;;10.80;90.90;;;;;;9177357;19;20022;-68
2023/01/07 09:35:36;;;;;;;3.45;1.65;;;10.80;90.30;;;;;;9177034;19;20048;-69
2023/01/07 09:38:37;;;;;;;1.92;1.40;;;10.80;90.20;;;;;;9172401;19;20022;-68
2023/01/07 09:42:16;;;;;;;4.93;1.88;;;10.80;90.20;;;;;;9174046;19;20625;-69
2023/01/07 09:45:25;;;;;;;4.90;1.60;;;10.90;90.20;;;;;;9173767;19;20348;-68
2023/01/07 09:48:32;;;;;;;6.18;1.50;;;10.90;90.20;;;;;;9173880;19;20031;-69
2023/01/07 09:51:39;;;;;;;2.65;1.38;;;10.90;90.20;;;;;;9176666;19;20021;-68
2023/01/07 09:54:44;;;;;;;8.00;2.00;;;11.00;90.20;;;;;;9175889;19;20014;-68
2023/01/07 09:57:46;;;;;;;3.55;1.75;;;11.00;90.10;;;;;;9175396;19;20767;-69
2023/01/07 10:00:59;;;;;;;2.15;1.48;;;11.00;90.10;;;;;;9174043;19;20044;-69
2023/01/07 10:04:20;;;;;;;4.95;1.55;;;11.00;90.10;;;;;;9175774;19;20014;-68
2023/01/07 10:07:32;;;;;;;4.40;1.67;;;11.10;90.00;;;;;;9169002;19;20014;-68
2023/01/07 10:10:45;;;;;;;4.70;1.60;;;11.10;90.00;;;;;;9172142;19;20348;-68
2023/01/07 10:13:50;;;;;;;4.05;1.70;;;11.10;90.00;;;;;;9175931;19;20049;-69
2023/01/07 10:17:09;;;;;;;5.88;1.38;;;11.20;90.00;;;;;;9174823;19;20025;-69
2023/01/07 10:20:10;;;;;;;3.67;1.77;;;11.20;90.00;;;;;;9175266;19;20038;-68
2023/01/07 10:23:27;;;;;;;2.33;1.60;;;11.20;90.00;;;;;;9173916;19;20048;-69
2023/01/07 10:26:42;;;;;;;4.35;1.50;;;11.30;90.00;;;;;;9173407;19;20376;-68
2023/01/07 10:29:49;;;;;;;4.10;1.55;;;11.30;89.80;;;;;;9172308;19;20011;-68
2023/01/07 10:33:25;;;;;;;3.28;1.38;;;11.30;89.80;;;;;;9170931;19;20010;-68
2023/01/07 10:36:31;;;;;;;5.50;1.38;;;11.30;89.60;;;;;;9179995;19;20006;-68
2023/01/07 10:39:51;;;;;;;2.47;1.40;;;11.40;89.70;;;;;;9183904;19;20046;-68
2023/01/07 10:43:06;;;;;;;2.65;1.50;;;11.40;89.50;;;;;;9181712;19;20026;-68
2023/01/07 10:46:39;;;;;;;3.63;1.30;;;11.40;89.50;;;;;;9182086;19;20019;-68
2023/01/07 10:50:21;;;;;;;3.85;1.35;;;11.40;89.60;;;;;;9180713;19;20023;-68
2023/01/07 10:54:16;;;;;;;3.00;1.40;;;11.50;89.30;;;;;;9182776;19;20356;-67
2023/01/07 10:57:21;;;;;;;6.60;1.10;;;11.50;89.30;;;;;;9180735;19;20014;-68
2023/01/07 11:00:23;;;;;;;1.50;1.25;;;11.50;89.30;;;;;;9182832;19;20006;-68
2023/01/07 11:03:25;;;;;;;4.80;1.35;;;11.50;89.20;;;;;;9182696;19;20026;-68
2023/01/07 11:06:44;;;;;;;2.95;1.35;;;11.60;90.40;;;;;;9178240;19;20007;-68
2023/01/07 11:09:48;;;;;;;1.58;1.15;;;11.60;91.20;;;;;;9178455;19;20029;-68
2023/01/07 11:12:53;;;;;;;2.67;1.08;;;11.80;90.50;;;;;;9180342;19;20055;-68
2023/01/07 11:15:59;;;;;;;2.72;1.00;;;11.60;90.10;;;;;;9181388;19;20398;-68
2023/01/07 11:19:09;;;;;;;2.05;1.10;;;11.60;90.50;;;;;;9181461;19;20033;-68
2023/01/07 11:22:30;;;;;;;3.63;1.33;;;11.60;90.10;;;;;;9181982;19;20015;-68
2023/01/07 11:25:31;;;;;;;2.25;1.25;;;11.70;90.10;;;;;;9182349;19;20852;-68
2023/01/07 11:28:33;;;;;;;2.60;1.10;;;11.70;90.80;;;;;;9180917;19;20025;-68
2023/01/07 11:31:54;;;;;;;4.25;1.25;;;11.70;90.60;;;;;;9177645;19;20014;-68
2023/01/07 11:35:02;;;;;;;1.98;1.08;;;11.70;90.20;;;;;;9181274;19;20483;-68
2023/01/07 11:38:28;;;;;;;3.53;1.30;;;11.70;89.60;;;;;;9179567;19;20743;-68
2023/01/07 11:41:29;;;;;;;2.78;1.17;;;11.70;90.20;;;;;;9181357;19;20015;-69
2023/01/07 11:44:31;;;;;;;3.90;1.33;;;11.80;90.70;;;;;;9180263;19;20014;-69
2023/01/07 11:47:32;;;;;;;1.83;1.00;;;11.70;88.50;;;;;;9177797;19;20010;-68
2023/01/07 11:50:53;;;;;;;1.35;0.95;;;11.70;88.50;;;;;;9177136;19;20029;-68
2023/01/07 11:53:58;;;;;;;6.75;1.58;;;11.80;88.30;;;;;;9176951;19;20117;-68
2023/01/07 11:57:20;;;;;;;1.98;1.13;;;11.80;88.20;;;;;;9175320;19;20092;-68
2023/01/07 12:00:27;;;;;;;6.10;1.33;;;11.90;90.20;;;;;;9175974;19;20022;-68
2023/01/07 12:03:30;;;;;;;2.88;1.10;;;12.00;91.50;;;;;;9179905;19;20072;-68
2023/01/07 12:06:37;;;;;;;4.18;1.25;;;12.10;91.60;;;;;;9172340;19;20046;-68
2023/01/07 12:09:40;;;;;;;2.47;1.40;;;12.00;88.10;;;;;;9173773;19;20543;-68
2023/01/07 12:12:44;;;;;;;3.13;1.08;;;12.00;87.90;;;;;;9179600;19;20007;-68
2023/01/07 12:16:00;;;;;;;3.15;1.55;;;12.10;88.50;;;;;;9179046;19;20014;-67
2023/01/07 12:19:19;;;;;;;6.95;1.77;;;12.10;88.00;;;;;;9169350;19;20026;-69
2023/01/07 12:23:03;;;;;;;8.57;2.00;;;12.20;87.80;;;;;;9160465;19;20038;-69
2023/01/07 12:26:19;;;;;;;2.42;1.27;;;12.20;87.50;;;;;;9169100;19;20035;-68
2023/01/07 12:29:48;;;;;;;3.00;1.38;;;12.10;87.50;;;;;;9168106;19;20082;-67
2023/01/07 12:33:05;;;;;;;3.45;1.42;;;12.10;88.80;;;;;;9173064;19;20022;-69
2023/01/07 12:36:33;;;;;;;3.17;1.73;;;12.20;90.60;;;;;;9171776;19;20018;-69
2023/01/07 12:39:39;;;;;;;1.63;1.20;;;12.10;86.90;;;;;;9169836;19;20106;-69
2023/01/07 12:43:00;;;;;;;4.85;1.23;;;12.50;87.50;;;;;;9171589;19;20014;-69
2023/01/07 12:46:10;;;;;;;2.38;1.10;;;12.20;86.90;;;;;;9170178;19;20042;-68
2023/01/07 12:49:26;;;;;;;2.55;0.95;;;12.20;86.80;;;;;;9167293;19;20018;-69
2023/01/07 12:52:38;;;;;;;4.90;1.30;;;12.20;86.70;;;;;;9161450;19;20046;-69
2023/01/07 12:55:45;;;;;;;1.85;1.15;;;12.20;86.60;;;;;;9169600;19;20188;-69
2023/01/07 12:59:19;;;;;;;1.17;1.00;;;12.20;86.60;;;;;;9171559;19;20041;-69
2023/01/07 13:02:53;;;;;;;3.42;1.10;;;12.20;86.50;;;;;;9165767;19;20014;-68
2023/01/07 13:06:14;;;;;;;3.80;1.67;;;12.20;86.50;;;;;;9169746;19;20029;-68
2023/01/07 13:09:58;;;;;;;2.78;1.27;;;12.20;86.30;;;;;;9163056;19;20010;-67
2023/01/07 13:13:05;;;;;;;2.53;1.23;;;12.20;86.20;;;;;;9168404;19;20412;-68
2023/01/07 13:16:10;;;;;;;1.63;1.20;;;12.20;86.30;;;;;;9170191;19;20106;-69
2023/01/07 13:19:11;;;;;;;1.55;1.15;;;12.20;86.20;;;;;;9166948;19;20010;-69
2023/01/07 13:22:22;;;;;;;1.60;1.20;;;12.20;86.10;;;;;;9161059;19;20022;-68
2023/01/07 13:25:35;;;;;;;2.13;1.30;;;12.30;86.10;;;;;;9164366;19;20027;-67
2023/01/07 13:29:10;;;;;;;4.22;1.08;;;12.30;86.00;;;;;;9164087;19;20107;-68
2023/01/07 13:32:27;;;;;;;3.30;1.50;;;12.30;85.70;;;;;;9164088;19;20025;-69
2023/01/07 13:35:56;;;;;;;6.80;1.55;;;12.30;85.80;;;;;;9175015;19;20028;-69
2023/01/07 13:39:12;;;;;;;1.60;1.30;;;12.30;85.90;;;;;;9177678;19;20018;-68
2023/01/07 13:42:29;;;;;;;2.58;1.45;;;12.30;85.80;;;;;;9176980;19;20543;-67
2023/01/07 13:45:32;;;;;;;3.15;1.10;;;12.30;86.30;;;;;;9176297;19;20039;-69
2023/01/07 13:48:37;;;;;;;2.15;1.08;;;12.20;85.70;;;;;;9174625;19;20031;-68
2023/01/07 13:51:38;;;;;;;5.82;1.30;;;12.30;85.60;;;;;;9177025;19;20022;-69
2023/01/07 13:54:49;;;;;;;2.08;1.40;;;12.30;85.60;;;;;;9173160;19;20033;-69
2023/01/07 13:57:50;;;;;;;3.05;1.60;;;12.30;88.80;;;;;;9174682;19;20070;-69
2023/01/07 14:01:19;;;;;;;2.55;1.65;;;12.20;85.30;;;;;;9174474;19;20141;-69
2023/01/07 14:04:50;;;;;;;1.40;1.30;;;12.20;85.10;;;;;;9174598;19;20015;-69
2023/01/07 14:07:59;;;;;;;6.20;1.50;;;12.20;85.00;;;;;;9167873;19;20030;-69
2023/01/07 14:11:01;;;;;;;1.70;1.40;;;12.20;85.20;;;;;;9178131;19;20006;-69
2023/01/07 14:14:26;;;;;;;3.13;1.73;;;12.20;85.20;;;;;;9181999;19;20494;-67
2023/01/07 14:17:58;;;;;;;2.72;1.80;;;12.20;85.60;;;;;;9181714;19;20022;-69
2023/01/07 14:21:21;;;;;;;2.63;1.95;;;12.20;88.00;;;;;;9179616;19;20011;-69
2023/01/07 14:24:37;;;;;;;4.65;2.15;;;12.30;86.90;;;;;;9181744;19;20014;-69
2023/01/07 14:27:51;;;;;;;1.85;1.40;;;12.10;88.70;;;;;;9182238;19;20014;-67
2023/01/07 14:30:53;;;;;;;2.50;1.67;;;12.10;85.00;;;;;;9182005;19;20038;-68
2023/01/07 14:34:05;;;;;;;2.38;1.67;;;12.10;85.20;;;;;;9182482;19;20010;-69
2023/01/07 14:37:13;;;;;;;5.63;1.77;;;12.20;86.20;;;;;;9184290;19;20046;-69
2023/01/07 14:40:31;;;;;;;3.67;2.20;;;12.00;84.90;;;;;;9183495;19;20362;-69
2023/01/07 14:44:01;;;;;;;4.90;1.90;;;12.00;84.80;;;;;;9183080;19;20015;-68
2023/01/07 14:47:02;;;;;;;3.58;2.08;;;12.10;86.30;;;;;;9179249;19;20029;-68
2023/01/07 14:50:33;;;;;;;3.22;1.90;;;12.00;84.70;;;;;;9180533;19;20022;-69
2023/01/07 14:53:59;;;;;;;3.10;1.75;;;11.90;84.40;;;;;;9181654;19;20035;-69
2023/01/07 14:57:38;;;;;;;3.65;2.10;;;11.90;84.40;;;;;;9181396;19;20038;-69
2023/01/07 15:01:07;;;;;;;3.63;1.73;;;11.90;84.50;;;;;;9181914;19;20050;-69
2023/01/07 15:04:35;;;;;;;5.72;1.90;;;11.90;84.90;;;;;;9181285;19;20019;-68
2023/01/07 15:07:40;;;;;;;4.78;1.92;;;11.80;84.30;;;;;;9176202;19;20015;-68
2023/01/07 15:17:32;;;;;;;3.20;1.77;;;11.70;87.00;;;;;;9177622;19;20015;-69
2023/01/07 15:21:07;;;;;;;2.03;1.50;;;11.70;84.30;;;;;;9177074;19;20029;-68
2023/01/07 15:24:24;;;;;;;4.05;1.50;;;11.70;84.10;;;;;;9166481;19;20043;-69
2023/01/07 15:27:53;;;;;;;3.72;1.83;;;11.70;84.30;;;;;;9170413;19;21672;-68
2023/01/07 15:31:03;;;;;;;2.10;1.63;;;11.60;84.40;;;;;;9171059;19;20042;-68
2023/01/07 15:34:13;;;;;;;3.58;1.75;;;11.70;84.50;;;;;;9171200;19;20051;-67
2023/01/07 15:37:18;;;;;;;2.05;1.40;;;11.60;84.00;;;;;;9172667;19;20018;-68
2023/01/07 15:40:23;;;;;;;4.00;1.77;;;11.50;84.30;;;;;;9172074;19;20022;-68
2023/01/07 15:43:27;;;;;;;3.67;1.90;;;11.50;83.90;;;;;;9170805;19;20018;-69
2023/01/07 15:46:31;;;;;;;1.73;1.40;;;11.40;83.80;;;;;;9171281;19;20082;-68
2023/01/07 15:49:33;;;;;;;3.20;1.90;;;11.40;83.90;;;;;;9169967;19;20049;-67
2023/01/07 15:52:36;;;;;;;4.43;2.53;;;11.40;83.80;;;;;;9165138;19;20026;-67
2023/01/07 15:56:09;;;;;;;5.20;1.92;;;11.40;83.80;;;;;;9167180;19;20052;-69
2023/01/07 15:59:14;;;;;;;3.88;2.25;;;11.30;83.70;;;;;;9163430;19;20034;-69
2023/01/07 16:02:31;;;;;;;7.05;2.17;;;11.30;83.70;;;;;;9166949;19;20029;-69
2023/01/07 16:05:36;;;;;;;3.13;2.30;;;11.30;83.70;;;;;;9168674;19;20022;-67
2023/01/07 16:08:38;;;;;;;2.20;1.77;;;11.20;83.70;;;;;;9163002;19;20022;-68
2023/01/07 16:11:40;;;;;;;3.83;1.90;;;11.20;83.70;;;;;;9165480;19;20018;-68
2023/01/07 16:14:41;;;;;;;3.67;2.50;;;11.20;83.70;;;;;;9167964;19;20046;-67
2023/01/07 16:17:57;;;;;;;4.70;2.33;;;11.20;83.70;;;;;;9169403;19;20015;-68
2023/01/07 16:21:05;;;;;;;3.75;2.38;;;11.10;83.50;;;;;;9159985;19;20018;-68
2023/01/07 16:24:12;;;;;;;4.15;2.08;;;11.10;83.60;;;;;;9162338;19;20132;-68
2023/01/07 16:27:14;;;;;;;6.22;2.45;;;11.10;83.70;;;;;;9167923;19;20022;-67
2023/01/07 16:30:16;;;;;;;4.60;2.30;;;11.10;83.60;;;;;;9163528;19;20023;-67